Time;durP1;ratioP1;P1;durP2;ratioP2;P2;SDS_P1;SDS_P2;PMS_P1;PMS_P2;Temp;Humidity;BMP_temperature;BMP_pressure;BME280_temperature;BME280_humidity;BME280_pressure;Samples;Min_cycle;Max_cycle;Signal;HPM_P1;HPM_P2
2024/03/25 00:00:34;;;;;;;2.92;1.10;;;6.30;56.60;;;;;;5117130;28;20577;-66
2024/03/25 00:03:01;;;;;;;2.17;1.00;;;6.30;56.90;;;;;;5117723;28;20185;-65
2024/03/25 00:05:28;;;;;;;5.35;1.50;;;6.30;56.70;;;;;;5117370;28;20517;-65
2024/03/25 00:07:55;;;;;;;4.18;1.50;;;6.30;56.70;;;;;;5116986;28;20714;-65
2024/03/25 00:10:21;;;;;;;2.40;1.60;;;6.30;56.80;;;;;;5116995;28;20220;-65
2024/03/25 00:12:54;;;;;;;4.40;1.10;;;6.30;56.70;;;;;;5117350;28;20269;-65
2024/03/25 00:15:20;;;;;;;3.90;1.42;;;6.30;56.60;;;;;;5117608;28;20764;-65
2024/03/25 00:17:47;;;;;;;3.47;1.30;;;6.30;56.70;;;;;;5116935;28;20643;-65
2024/03/25 00:20:14;;;;;;;3.20;1.35;;;6.40;56.60;;;;;;5116972;28;20195;-66
2024/03/25 00:22:42;;;;;;;3.90;1.55;;;6.40;56.60;;;;;;5116704;28;20675;-66
2024/03/25 00:25:08;;;;;;;2.55;1.20;;;6.40;56.60;;;;;;5117007;28;20212;-65
2024/03/25 00:27:35;;;;;;;3.17;1.10;;;6.30;56.80;;;;;;5117168;28;20208;-65
2024/03/25 00:30:04;;;;;;;3.45;1.23;;;6.30;56.90;;;;;;5116806;28;20242;-65
2024/03/25 00:32:31;;;;;;;3.90;1.60;;;6.30;56.90;;;;;;5116996;28;20202;-65
2024/03/25 00:34:57;;;;;;;2.85;0.95;;;6.30;57.00;;;;;;5116757;28;20242;-65
2024/03/25 00:37:25;;;;;;;2.87;1.30;;;6.40;57.10;;;;;;5116745;28;20196;-66
2024/03/25 00:39:51;;;;;;;2.05;0.85;;;6.40;57.10;;;;;;5116711;28;20428;-65
2024/03/25 00:42:17;;;;;;;3.10;1.30;;;6.40;57.20;;;;;;5116642;28;20180;-66
2024/03/25 00:44:43;;;;;;;4.22;1.00;;;6.40;57.10;;;;;;5116509;28;20452;-66
2024/03/25 00:47:12;;;;;;;1.97;0.77;;;6.40;57.00;;;;;;5116308;28;20194;-65
2024/03/25 00:49:38;;;;;;;4.25;1.33;;;6.40;57.60;;;;;;5116650;28;20828;-66
2024/03/25 00:52:06;;;;;;;3.45;1.08;;;6.30;57.70;;;;;;5116497;28;20226;-65
2024/03/25 00:54:31;;;;;;;2.80;0.90;;;6.30;57.90;;;;;;5116567;28;20289;-65
2024/03/25 00:56:59;;;;;;;1.95;0.77;;;6.30;58.10;;;;;;5116387;28;20181;-65
2024/03/25 00:59:25;;;;;;;2.80;1.10;;;6.30;58.20;;;;;;5115974;28;20639;-65
2024/03/25 01:01:52;;;;;;;2.10;1.17;;;6.30;58.50;;;;;;5115951;28;20242;-66
2024/03/25 01:04:19;;;;;;;2.05;0.70;;;6.20;58.80;;;;;;5116366;28;20475;-65
2024/03/25 01:06:46;;;;;;;3.25;0.80;;;6.20;59.10;;;;;;5116171;28;20180;-66
2024/03/25 01:09:12;;;;;;;1.92;0.70;;;6.20;59.40;;;;;;5116170;28;20599;-65
2024/03/25 01:11:39;;;;;;;2.38;1.00;;;6.20;59.40;;;;;;5116035;28;20180;-65
2024/03/25 01:14:05;;;;;;;2.30;0.75;;;6.20;59.60;;;;;;5115833;28;20520;-65
2024/03/25 01:16:33;;;;;;;1.80;0.70;;;6.20;59.60;;;;;;5116051;28;20229;-65
2024/03/25 01:18:59;;;;;;;2.10;0.90;;;6.20;59.80;;;;;;5116202;28;20447;-66
2024/03/25 01:21:27;;;;;;;2.37;0.80;;;6.10;59.90;;;;;;5115638;28;20234;-66
2024/03/25 01:23:53;;;;;;;2.53;0.90;;;6.20;60.00;;;;;;5115951;28;20794;-66
2024/03/25 01:26:20;;;;;;;1.90;0.80;;;6.10;59.90;;;;;;5116197;28;20223;-65
2024/03/25 01:28:46;;;;;;;2.08;0.90;;;6.10;60.20;;;;;;5115654;28;20461;-65
2024/03/25 01:31:13;;;;;;;1.80;0.70;;;6.00;60.40;;;;;;5115737;28;20188;-66
2024/03/25 01:33:39;;;;;;;2.08;0.80;;;6.00;60.50;;;;;;5115410;28;20277;-65
2024/03/25 01:36:07;;;;;;;1.90;0.80;;;6.00;60.40;;;;;;5115748;28;20282;-65
2024/03/25 01:38:34;;;;;;;1.85;0.82;;;6.00;60.50;;;;;;5115587;28;20895;-65
2024/03/25 01:41:09;;;;;;;2.28;0.93;;;6.00;60.70;;;;;;5115203;28;20181;-65
2024/03/25 01:43:35;;;;;;;1.90;0.95;;;6.00;60.60;;;;;;5115563;28;20263;-66
2024/03/25 01:46:02;;;;;;;2.10;0.90;;;5.90;60.40;;;;;;5115449;28;20184;-65
2024/03/25 01:48:28;;;;;;;2.10;0.80;;;5.90;60.90;;;;;;5115264;28;20216;-65
2024/03/25 01:50:56;;;;;;;3.65;1.10;;;5.90;61.10;;;;;;5115277;28;20180;-65
2024/03/25 01:53:23;;;;;;;3.83;1.27;;;5.90;61.20;;;;;;5114996;28;20187;-65
2024/03/25 01:55:55;;;;;;;2.25;0.80;;;6.00;61.10;;;;;;5114498;28;20572;-65
2024/03/25 01:58:22;;;;;;;2.80;1.10;;;6.00;61.00;;;;;;5115445;28;20176;-65
2024/03/25 02:00:50;;;;;;;2.00;0.90;;;6.00;61.20;;;;;;5115228;28;20536;-65
2024/03/25 02:03:16;;;;;;;2.00;0.90;;;5.90;61.10;;;;;;5115115;28;20279;-66
2024/03/25 02:05:45;;;;;;;2.47;1.00;;;5.90;61.10;;;;;;5115024;28;20184;-65
2024/03/25 02:08:12;;;;;;;2.35;1.20;;;5.90;61.30;;;;;;5114933;28;20208;-65
2024/03/25 02:10:39;;;;;;;2.33;1.08;;;5.90;61.20;;;;;;5114946;28;20661;-65
2024/03/25 02:13:07;;;;;;;2.45;1.00;;;6.00;60.80;;;;;;5114909;28;20573;-65
2024/03/25 02:15:36;;;;;;;2.25;0.90;;;6.00;60.50;;;;;;5114952;28;20271;-65
2024/03/25 02:18:02;;;;;;;2.42;1.00;;;6.00;60.50;;;;;;5114822;28;20279;-65
2024/03/25 02:20:29;;;;;;;3.40;1.48;;;6.00;60.40;;;;;;5114845;28;20198;-66
2024/03/25 02:22:55;;;;;;;3.83;1.48;;;6.00;60.40;;;;;;5114778;28;20215;-65
2024/03/25 02:25:23;;;;;;;7.07;1.50;;;6.00;60.10;;;;;;5114757;28;20185;-65
2024/03/25 02:27:50;;;;;;;2.47;1.15;;;6.00;60.00;;;;;;5114575;28;20243;-66
2024/03/25 02:30:17;;;;;;;3.58;1.10;;;6.00;60.00;;;;;;5114663;28;20271;-65
2024/03/25 02:32:43;;;;;;;3.45;1.20;;;6.00;60.10;;;;;;5114569;28;20188;-65
2024/03/25 02:35:13;;;;;;;6.23;1.70;;;6.00;60.10;;;;;;5114197;28;20199;-65
2024/03/25 02:37:39;;;;;;;5.70;1.75;;;6.00;60.00;;;;;;5114903;28;20430;-65
2024/03/25 02:40:09;;;;;;;2.90;0.95;;;6.00;59.90;;;;;;5114372;28;20218;-66
2024/03/25 02:42:35;;;;;;;2.45;1.05;;;6.00;59.90;;;;;;5114352;28;20189;-65
2024/03/25 02:45:05;;;;;;;2.33;1.10;;;6.00;59.90;;;;;;5114031;28;20242;-66
2024/03/25 02:47:31;;;;;;;3.05;1.20;;;6.00;59.90;;;;;;5113917;28;20303;-66
2024/03/25 02:49:57;;;;;;;3.10;1.20;;;5.90;59.80;;;;;;5114306;28;20264;-66
2024/03/25 02:52:25;;;;;;;2.85;1.30;;;5.90;59.90;;;;;;5113932;28;20962;-66
2024/03/25 02:54:51;;;;;;;3.55;1.50;;;5.90;59.90;;;;;;5113882;28;20185;-66
2024/03/25 02:57:18;;;;;;;3.17;1.50;;;5.90;59.90;;;;;;5113840;28;20184;-66
2024/03/25 02:59:44;;;;;;;3.38;1.15;;;5.90;59.90;;;;;;5113699;28;20986;-67
2024/03/25 03:02:12;;;;;;;5.63;1.63;;;5.90;59.80;;;;;;5114105;28;20220;-66
2024/03/25 03:04:38;;;;;;;2.50;1.40;;;5.90;59.90;;;;;;5114024;28;20457;-66
2024/03/25 03:07:06;;;;;;;3.30;1.33;;;5.90;59.80;;;;;;5113012;28;20665;-66
2024/03/25 03:09:32;;;;;;;4.05;1.23;;;5.80;60.00;;;;;;5113604;28;20552;-66
2024/03/25 03:11:59;;;;;;;2.93;1.10;;;5.90;60.00;;;;;;5113930;28;20276;-66
2024/03/25 03:14:24;;;;;;;4.80;1.38;;;5.90;59.90;;;;;;5113855;28;20539;-66
2024/03/25 03:16:54;;;;;;;2.73;1.53;;;5.90;59.70;;;;;;5113580;28;20200;-66
2024/03/25 03:19:21;;;;;;;3.65;1.60;;;5.90;59.70;;;;;;5113788;28;20434;-66
2024/03/25 03:21:48;;;;;;;3.40;1.20;;;5.90;59.80;;;;;;5113899;28;20507;-66
2024/03/25 03:24:14;;;;;;;3.10;1.33;;;5.90;59.50;;;;;;5113470;28;20219;-66
2024/03/25 03:26:41;;;;;;;2.30;1.20;;;5.90;59.50;;;;;;5113805;28;20233;-66
2024/03/25 03:29:07;;;;;;;3.80;1.63;;;5.90;59.40;;;;;;5113389;28;20523;-66
2024/03/25 03:31:35;;;;;;;2.47;1.33;;;5.90;59.40;;;;;;5113619;28;20184;-66
2024/03/25 03:34:00;;;;;;;2.45;1.13;;;5.90;59.20;;;;;;5113782;28;20453;-66
2024/03/25 03:36:29;;;;;;;3.17;1.30;;;5.80;59.40;;;;;;5113711;28;20231;-66
2024/03/25 03:38:55;;;;;;;2.95;1.83;;;5.80;59.60;;;;;;5113761;28;20522;-66
2024/03/25 03:41:22;;;;;;;4.70;1.70;;;5.70;59.60;;;;;;5113441;28;20263;-66
2024/03/25 03:43:48;;;;;;;2.72;1.65;;;5.70;59.80;;;;;;5113657;28;20782;-65
2024/03/25 03:46:15;;;;;;;6.68;1.90;;;5.70;60.30;;;;;;5113601;28;20215;-66
2024/03/25 03:48:41;;;;;;;6.53;1.90;;;5.70;59.60;;;;;;5113763;28;20212;-65
2024/03/25 03:51:09;;;;;;;4.10;2.17;;;5.70;60.00;;;;;;5113362;28;20188;-66
2024/03/25 03:53:36;;;;;;;6.20;2.88;;;5.70;60.40;;;;;;5113542;28;20884;-65
2024/03/25 03:56:05;;;;;;;8.05;2.53;;;5.70;60.50;;;;;;5113482;28;20216;-65
2024/03/25 03:58:31;;;;;;;4.78;2.75;;;5.70;60.40;;;;;;5113091;28;20188;-65
2024/03/25 04:00:58;;;;;;;4.40;2.08;;;5.70;60.30;;;;;;5113668;28;20195;-65
2024/03/25 04:03:24;;;;;;;3.25;1.85;;;5.80;60.60;;;;;;5113437;28;20575;-65
2024/03/25 04:05:51;;;;;;;3.97;1.57;;;5.80;60.80;;;;;;5113519;28;20275;-65
2024/03/25 04:08:17;;;;;;;2.90;1.48;;;5.80;60.70;;;;;;5113314;28;20501;-65
2024/03/25 04:10:46;;;;;;;3.80;1.47;;;5.80;60.30;;;;;;5113344;28;20593;-66
2024/03/25 04:13:12;;;;;;;3.20;1.52;;;5.90;59.70;;;;;;5113456;28;20462;-65
2024/03/25 04:15:40;;;;;;;2.80;1.60;;;5.90;59.40;;;;;;5113557;28;20207;-65
2024/03/25 04:18:07;;;;;;;3.05;1.45;;;5.90;59.50;;;;;;5114257;28;20653;-65
2024/03/25 04:20:38;;;;;;;2.92;1.65;;;5.90;59.50;;;;;;5117052;28;20192;-65
2024/03/25 04:23:06;;;;;;;3.85;1.30;;;5.90;59.20;;;;;;5117206;28;20180;-66
2024/03/25 04:25:34;;;;;;;3.25;1.85;;;5.90;59.50;;;;;;5117297;28;20192;-66
2024/03/25 04:28:01;;;;;;;3.88;1.77;;;5.90;59.40;;;;;;5116862;28;20235;-66
2024/03/25 04:30:28;;;;;;;3.95;1.50;;;5.80;59.40;;;;;;5116930;28;20277;-65
2024/03/25 04:32:54;;;;;;;4.50;2.30;;;5.80;59.40;;;;;;5117059;28;20275;-65
2024/03/25 04:35:21;;;;;;;3.23;1.83;;;5.80;59.50;;;;;;5116823;28;20276;-65
